Time,TemperatureF,DewpointF,PressureIn,WindDirection,WindDirectionDegrees,WindSpeedMPH,WindSpeedGustMPH,Humidity,HourlyPrecipIn,Conditions,Clouds,dailyrainin,SoftwareType,DateUTC
2013-06-21 00:05:00,53.7,51.0,30.21,SE,130,1.0,2.0,89,0.00,,,0.00,weatherlink.com 1.10,2013-06-21 04:05:00,
2013-06-21 00:20:00,53.0,51.0,30.21,SE,130,0.0,2.0,91,0.00,,,0.00,weatherlink.com 1.10,2013-06-21 04:20:00,
2013-06-21 00:35:00,52.5,50.0,30.20,SE,130,0.0,2.0,91,0.00,,,0.00,weatherlink.com 1.10,2013-06-21 04:35:00,
2013-06-21 00:50:00,52.6,50.0,30.20,SSE,164,1.0,2.0,92,0.00,,,0.00,weatherlink.com 1.10,2013-06-21 04:50:00,
2013-06-21 01:05:00,52.3,50.0,30.20,ESE,110,0.0,1.0,92,0.00,,,0.00,weatherlink.com 1.10,2013-06-21 05:05:00,
2013-06-21 01:20:00,51.9,50.0,30.21,ESE,110,0.0,2.0,93,0.00,,,0.00,weatherlink.com 1.10,2013-06-21 05:20:00,
2013-06-21 01:35:00,51.5,50.0,30.21,ESE,110,0.0,0.0,93,0.00,,,0.00,weatherlink.com 1.10,2013-06-21 05:35:00,
2013-06-21 01:50:00,51.3,49.0,30.21,SE,128,0.0,1.0,93,0.00,,,0.00,weatherlink.com 1.10,2013-06-21 05:50:00,
2013-06-21 02:05:00,51.2,50.0,30.21,SE,128,0.0,1.0,94,0.00,,,0.00,weatherlink.com 1.10,2013-06-21 06:05:00,
2013-06-21 02:20:00,51.0,49.0,30.20,ESE,103,0.0,3.0,94,0.00,,,0.00,weatherlink.com 1.10,2013-06-21 06:20:00,
2013-06-21 02:35:00,51.1,50.0,30.21,SE,146,0.0,2.0,94,0.00,,,0.00,weatherlink.com 1.10,2013-06-21 06:35:00,
2013-06-21 02:50:00,50.8,49.0,30.20,SE,146,0.0,2.0,94,0.00,,,0.00,weatherlink.com 1.10,2013-06-21 06:50:00,
2013-06-21 03:05:00,50.5,49.0,30.20,SE,146,0.0,2.0,93,0.00,,,0.00,weatherlink.com 1.10,2013-06-21 07:05:00,
2013-06-21 03:20:00,50.3,49.0,30.20,SE,146,0.0,1.0,94,0.00,,,0.00,weatherlink.com 1.10,2013-06-21 07:20:00,
2013-06-21 03:35:00,50.2,49.0,30.20,SE,146,0.0,2.0,94,0.00,,,0.00,weatherlink.com 1.10,2013-06-21 07:35:00,
2013-06-21 03:50:00,50.0,48.0,30.20,SE,146,0.0,2.0,94,0.00,,,0.00,weatherlink.com 1.10,2013-06-21 07:50:00,
2013-06-21 04:05:00,49.8,48.0,30.19,ESE,115,1.0,2.0,94,0.00,,,0.00,weatherlink.com 1.10,2013-06-21 08:05:00,
2013-06-21 04:20:00,49.6,48.0,30.20,ESE,116,0.0,2.0,94,0.00,,,0.00,weatherlink.com 1.10,2013-06-21 08:20:00,
2013-06-21 04:35:00,49.5,48.0,30.20,SSE,149,0.0,3.0,95,0.00,,,0.00,weatherlink.com 1.10,2013-06-21 08:35:00,
2013-06-21 04:50:00,49.4,48.0,30.20,East,87,0.0,3.0,95,0.00,,,0.00,weatherlink.com 1.10,2013-06-21 08:50:00,
2013-06-21 05:05:00,49.2,48.0,30.21,East,80,0.0,3.0,95,0.00,,,0.00,weatherlink.com 1.10,2013-06-21 09:05:00,
2013-06-21 05:20:00,49.2,48.0,30.21,NNE,13,0.0,2.0,95,0.00,,,0.00,weatherlink.com 1.10,2013-06-21 09:20:00,
2013-06-21 05:35:00,49.1,48.0,30.21,NNE,22,0.0,2.0,95,0.00,,,0.00,weatherlink.com 1.10,2013-06-21 09:35:00,
2013-06-21 05:50:00,48.9,48.0,30.21,NNE,22,0.0,1.0,95,0.00,,,0.00,weatherlink.com 1.10,2013-06-21 09:50:00,
2013-06-21 06:05:00,49.0,48.0,30.22,NNE,22,0.0,0.0,95,0.00,,,0.00,weatherlink.com 1.10,2013-06-21 10:05:00,
2013-06-21 06:20:00,49.9,49.0,30.22,NNE,22,0.0,0.0,96,0.00,,,0.00,weatherlink.com 1.10,2013-06-21 10:20:00,
2013-06-21 06:35:00,51.1,50.0,30.22,NNE,22,0.0,2.0,94,0.00,,,0.00,weatherlink.com 1.10,2013-06-21 10:35:00,
2013-06-21 06:50:00,53.2,51.0,30.22,NNE,22,0.0,0.0,91,0.00,,,0.00,weatherlink.com 1.10,2013-06-21 10:50:00,
2013-06-21 07:05:00,55.3,52.0,30.22,NNE,22,0.0,1.0,89,0.00,,,0.00,weatherlink.com 1.10,2013-06-21 11:05:00,
2013-06-21 07:20:00,56.8,54.0,30.22,NNE,22,0.0,2.0,89,0.00,,,0.00,weatherlink.com 1.10,2013-06-21 11:20:00,
2013-06-21 07:35:00,59.0,55.0,30.22,NNE,22,0.0,0.0,87,0.00,,,0.00,weatherlink.com 1.10,2013-06-21 11:35:00,
2013-06-21 07:51:00,61.7,57.0,30.22,NNE,22,0.0,1.0,85,0.00,,,0.00,weatherlink.com 1.10,2013-06-21 11:51:00,
2013-06-21 08:06:00,63.5,58.0,30.22,NNE,22,0.0,1.0,83,0.00,,,0.00,weatherlink.com 1.10,2013-06-21 12:06:00,
2013-06-21 08:21:00,66.1,59.0,30.22,North,351,0.0,4.0,79,0.00,,,0.00,weatherlink.com 1.10,2013-06-21 12:21:00,
2013-06-21 08:36:00,67.6,60.0,30.22,NNW,342,0.0,5.0,76,0.00,,,0.00,weatherlink.com 1.10,2013-06-21 12:36:00,
2013-06-21 08:51:00,69.5,61.0,30.21,NNW,347,4.0,6.0,73,0.00,,,0.00,weatherlink.com 1.10,2013-06-21 12:51:00,
2013-06-21 09:06:00,70.6,61.0,30.21,East,83,1.0,7.0,71,0.00,,,0.00,weatherlink.com 1.10,2013-06-21 13:06:00,
2013-06-21 09:21:00,70.9,60.0,30.21,SSE,159,0.0,8.0,69,0.00,,,0.00,weatherlink.com 1.10,2013-06-21 13:21:00,
2013-06-21 09:36:00,71.6,59.0,30.20,NNW,327,0.0,10.0,64,0.00,,,0.00,weatherlink.com 1.10,2013-06-21 13:36:00,
2013-06-21 09:51:00,72.4,59.0,30.21,ENE,75,5.0,7.0,64,0.00,,,0.00,weatherlink.com 1.10,2013-06-21 13:51:00,
2013-06-21 10:21:00,73.9,59.0,30.21,NNW,328,6.0,8.0,61,0.00,,,0.00,weatherlink.com 1.10,2013-06-21 14:21:00,
2013-06-21 10:36:00,74.2,58.0,30.21,NE,44,2.0,8.0,58,0.00,,,0.00,weatherlink.com 1.10,2013-06-21 14:36:00,
2013-06-21 10:51:00,74.7,58.0,30.22,North,349,1.0,6.0,57,0.00,,,0.00,weatherlink.com 1.10,2013-06-21 14:51:00,
2013-06-21 11:21:00,76.5,59.0,30.21,NW,305,0.0,7.0,54,0.00,,,0.00,weatherlink.com 1.10,2013-06-21 15:21:00,
2013-06-21 11:36:00,77.6,57.0,30.20,NNW,336,5.0,9.0,50,0.00,,,0.00,weatherlink.com 1.10,2013-06-21 15:36:00,
2013-06-21 11:51:00,76.6,57.0,30.21,North,360,2.0,6.0,50,0.00,,,0.00,weatherlink.com 1.10,2013-06-21 15:51:00,
2013-06-21 12:06:00,76.2,57.0,30.21,NNW,338,4.0,4.0,52,0.00,,,0.00,weatherlink.com 1.10,2013-06-21 16:06:00,
2013-06-21 12:21:00,78.2,58.0,30.21,North,349,6.0,6.0,50,0.00,,,0.00,weatherlink.com 1.10,2013-06-21 16:21:00,
2013-06-21 12:36:00,78.4,55.0,30.20,North,5,4.0,9.0,44,0.00,,,0.00,weatherlink.com 1.10,2013-06-21 16:36:00,
2013-06-21 12:51:00,78.1,56.0,30.20,NNE,19,1.0,9.0,47,0.00,,,0.00,weatherlink.com 1.10,2013-06-21 16:51:00,
2013-06-21 13:07:00,79.2,57.0,30.20,WNW,294,3.0,8.0,46,0.00,,,0.00,weatherlink.com 1.10,2013-06-21 17:07:00,
2013-06-21 13:22:00,78.2,56.0,30.19,WNW,293,2.0,7.0,46,0.00,,,0.00,weatherlink.com 1.10,2013-06-21 17:22:00,
2013-06-21 13:52:00,78.3,56.0,30.18,WNW,303,1.0,5.0,46,0.00,,,0.00,weatherlink.com 1.10,2013-06-21 17:52:00,
2013-06-21 14:06:00,77.7,61.0,30.19,East,101,6.0,6.0,57,0.00,,,0.00,weatherlink.com 1.10,2013-06-21 18:06:00,
2013-06-21 14:21:00,76.9,63.0,30.18,SE,128,2.0,9.0,62,0.00,,,0.00,weatherlink.com 1.10,2013-06-21 18:21:00,
2013-06-21 14:36:00,75.9,63.0,30.18,SSE,158,3.0,7.0,65,0.00,,,0.00,weatherlink.com 1.10,2013-06-21 18:36:00,
2013-06-21 14:51:00,75.6,63.0,30.19,WSW,248,1.0,4.0,66,0.00,,,0.00,weatherlink.com 1.10,2013-06-21 18:51:00,
2013-06-21 15:06:00,76.1,63.0,30.18,South,170,2.0,4.0,65,0.00,,,0.00,weatherlink.com 1.10,2013-06-21 19:06:00,
2013-06-21 15:21:00,76.1,64.0,30.18,SE,142,1.0,5.0,66,0.00,,,0.00,weatherlink.com 1.10,2013-06-21 19:21:00,
2013-06-21 15:36:00,75.7,64.0,30.18,South,183,0.0,4.0,66,0.00,,,0.00,weatherlink.com 1.10,2013-06-21 19:36:00,
2013-06-21 15:51:00,75.7,64.0,30.18,South,169,3.0,5.0,66,0.00,,,0.00,weatherlink.com 1.10,2013-06-21 19:51:00,
2013-06-21 16:06:00,75.4,64.0,30.18,SSE,147,1.0,5.0,67,0.00,,,0.00,weatherlink.com 1.10,2013-06-21 20:06:00,
2013-06-21 16:21:00,75.6,64.0,30.18,SSE,161,1.0,4.0,67,0.00,,,0.00,weatherlink.com 1.10,2013-06-21 20:21:00,
2013-06-21 16:36:00,75.7,64.0,30.17,ENE,77,2.0,3.0,67,0.00,,,0.00,weatherlink.com 1.10,2013-06-21 20:36:00,
2013-06-21 16:51:00,75.9,64.0,30.17,SE,126,0.0,5.0,66,0.00,,,0.00,weatherlink.com 1.10,2013-06-21 20:51:00,
2013-06-21 17:06:00,75.9,64.0,30.17,West,260,2.0,4.0,66,0.00,,,0.00,weatherlink.com 1.10,2013-06-21 21:06:00,
2013-06-21 17:21:00,74.9,64.0,30.16,ESE,119,0.0,6.0,68,0.00,,,0.00,weatherlink.com 1.10,2013-06-21 21:21:00,
2013-06-21 17:36:00,74.7,64.0,30.17,ESE,104,1.0,3.0,69,0.00,,,0.00,weatherlink.com 1.10,2013-06-21 21:36:00,
2013-06-21 17:51:00,74.2,64.0,30.17,ESE,116,0.0,3.0,71,0.00,,,0.00,weatherlink.com 1.10,2013-06-21 21:51:00,
2013-06-21 18:06:00,74.9,65.0,30.17,SSE,155,0.0,2.0,70,0.00,,,0.00,weatherlink.com 1.10,2013-06-21 22:06:00,
2013-06-21 18:21:00,75.0,64.0,30.17,South,183,1.0,3.0,68,0.00,,,0.00,weatherlink.com 1.10,2013-06-21 22:21:00,
2013-06-21 18:36:00,74.8,64.0,30.17,SE,143,1.0,2.0,69,0.00,,,0.00,weatherlink.com 1.10,2013-06-21 22:36:00,
2013-06-21 18:51:00,74.6,65.0,30.17,SSW,205,0.0,2.0,71,0.00,,,0.00,weatherlink.com 1.10,2013-06-21 22:51:00,
2013-06-21 19:06:00,74.7,65.0,30.17,ESE,117,0.0,2.0,71,0.00,,,0.00,weatherlink.com 1.10,2013-06-21 23:06:00,
2013-06-21 19:21:00,75.0,65.0,30.17,ESE,105,1.0,2.0,70,0.00,,,0.00,weatherlink.com 1.10,2013-06-21 23:21:00,
2013-06-21 19:36:00,75.0,64.0,30.17,South,182,0.0,3.0,69,0.00,,,0.00,weatherlink.com 1.10,2013-06-21 23:36:00,
2013-06-21 19:51:00,74.3,64.0,30.18,SW,229,1.0,3.0,71,0.00,,,0.00,weatherlink.com 1.10,2013-06-21 23:51:00,
2013-06-21 20:06:00,73.0,65.0,30.17,South,180,0.0,2.0,76,0.00,,,0.00,weatherlink.com 1.10,2013-06-22 00:06:00,
2013-06-21 20:21:00,71.0,65.0,30.17,SE,132,1.0,2.0,80,0.00,,,0.00,weatherlink.com 1.10,2013-06-22 00:21:00,
2013-06-21 20:36:00,69.4,64.0,30.17,SE,134,0.0,1.0,83,0.00,,,0.00,weatherlink.com 1.10,2013-06-22 00:36:00,
2013-06-21 20:51:00,67.9,63.0,30.17,SE,134,1.0,2.0,85,0.00,,,0.00,weatherlink.com 1.10,2013-06-22 00:51:00,
2013-06-21 21:06:00,66.9,63.0,30.18,SE,134,0.0,1.0,87,0.00,,,0.00,weatherlink.com 1.10,2013-06-22 01:06:00,
2013-06-21 21:21:00,65.9,62.0,30.18,SE,134,0.0,2.0,88,0.00,,,0.00,weatherlink.com 1.10,2013-06-22 01:21:00,
2013-06-21 21:36:00,65.1,62.0,30.18,SE,134,0.0,0.0,90,0.00,,,0.00,weatherlink.com 1.10,2013-06-22 01:36:00,
2013-06-21 21:51:00,64.4,62.0,30.18,SE,134,0.0,1.0,91,0.00,,,0.00,weatherlink.com 1.10,2013-06-22 01:51:00,
2013-06-21 22:06:00,63.8,61.0,30.18,ESE,117,1.0,3.0,91,0.00,,,0.00,weatherlink.com 1.10,2013-06-22 02:06:00,
2013-06-21 22:21:00,63.3,61.0,30.18,ESE,117,0.0,1.0,92,0.00,,,0.00,weatherlink.com 1.10,2013-06-22 02:21:00,
2013-06-21 22:36:00,62.7,60.0,30.18,ESE,117,1.0,2.0,92,0.00,,,0.00,weatherlink.com 1.10,2013-06-22 02:36:00,
2013-06-21 22:51:00,62.3,60.0,30.18,ESE,117,0.0,0.0,92,0.00,,,0.00,weatherlink.com 1.10,2013-06-22 02:51:00,
2013-06-21 23:06:00,62.0,60.0,30.18,ESE,117,0.0,2.0,92,0.00,,,0.00,weatherlink.com 1.10,2013-06-22 03:06:00,
2013-06-21 23:21:00,61.3,59.0,30.18,ESE,117,0.0,0.0,93,0.00,,,0.00,weatherlink.com 1.10,2013-06-22 03:21:00,
2013-06-21 23:36:00,61.0,59.0,30.18,ESE,117,0.0,3.0,93,0.00,,,0.00,weatherlink.com 1.10,2013-06-22 03:36:00,
2013-06-21 23:51:00,60.5,59.0,30.18,ESE,117,0.0,2.0,93,0.00,,,0.00,weatherlink.com 1.10,2013-06-22 03:51:00,